Time;durP1;ratioP1;P1;durP2;ratioP2;P2;SDS_P1;SDS_P2;PMS_P1;PMS_P2;Temp;Humidity;BMP_temperature;BMP_pressure;BME280_temperature;BME280_humidity;BME280_pressure;Samples;Min_cycle;Max_cycle;Signal;HPM_P1;HPM_P2
2022/07/22 00:00:54;;;;;;;9.27;7.47;;;;;;;19.21;74.53;98926.25;4135938;28;20050;-70
2022/07/22 00:02:54;;;;;;;9.85;7.60;;;;;;;19.17;74.69;98921.91;4136492;28;20060;-70
2022/07/22 00:04:54;;;;;;;8.70;6.85;;;;;;;19.17;74.55;98917.06;4134521;28;20390;-70
2022/07/22 00:06:55;;;;;;;7.55;6.75;;;;;;;19.15;74.44;98919.53;4135453;28;20056;-70
2022/07/22 00:08:56;;;;;;;9.32;7.35;;;;;;;19.11;74.76;98915.97;4132845;28;20046;-70
2022/07/22 00:10:56;;;;;;;7.97;7.18;;;;;;;18.98;75.31;98915.78;4134950;28;20053;-70
2022/07/22 00:12:56;;;;;;;8.07;6.57;;;;;;;18.97;75.37;98919.00;4135705;28;20558;-70
2022/07/22 00:14:57;;;;;;;9.48;7.18;;;;;;;18.90;75.47;98928.31;4136131;28;20046;-70
2022/07/22 00:16:57;;;;;;;7.88;7.07;;;;;;;18.83;75.78;98933.22;4136460;28;20210;-70
2022/07/22 00:18:58;;;;;;;9.00;6.82;;;;;;;18.80;75.95;98932.06;4134398;28;20042;-70
2022/07/22 00:20:58;;;;;;;9.07;6.75;;;;;;;18.73;76.39;98934.97;4134914;28;20448;-70
2022/07/22 00:22:58;;;;;;;10.90;7.40;;;;;;;18.66;76.34;98938.66;4134921;28;20360;-70
2022/07/22 00:24:59;;;;;;;11.05;7.18;;;;;;;18.60;76.87;98931.13;4135334;28;20255;-70
2022/07/22 00:26:59;;;;;;;8.98;7.28;;;;;;;18.55;76.97;98932.38;4135453;28;20049;-70
2022/07/22 00:29:00;;;;;;;9.40;7.45;;;;;;;18.49;77.27;98937.66;4134702;28;20128;-70
2022/07/22 00:31:00;;;;;;;8.95;7.20;;;;;;;18.44;77.13;98932.50;4134194;28;20054;-70
2022/07/22 00:33:01;;;;;;;8.80;6.93;;;;;;;18.46;76.83;98930.09;4134224;28;20710;-70
2022/07/22 00:35:01;;;;;;;7.05;6.10;;;;;;;18.40;77.11;98928.19;4133319;28;20181;-70
2022/07/22 00:37:01;;;;;;;10.02;7.05;;;;;;;18.35;77.02;98926.63;4136494;28;20042;-70
2022/07/22 00:39:02;;;;;;;7.97;6.63;;;;;;;18.31;76.75;98923.09;4134644;28;20042;-70
2022/07/22 00:41:03;;;;;;;8.80;6.55;;;;;;;18.26;76.40;98926.34;4133718;28;20310;-70
2022/07/22 00:43:03;;;;;;;8.98;6.38;;;;;;;18.22;76.50;98923.59;4136756;28;20111;-70
2022/07/22 00:45:04;;;;;;;8.05;6.55;;;;;;;18.20;77.05;98926.03;4133957;28;20411;-70
2022/07/22 00:47:05;;;;;;;9.65;7.03;;;;;;;18.16;77.08;98928.06;4134201;28;20116;-70
2022/07/22 00:49:07;;;;;;;8.13;6.85;;;;;;;18.10;76.99;98924.13;4134692;28;20603;-70
2022/07/22 00:51:08;;;;;;;10.45;6.72;;;;;;;18.08;77.32;98922.97;4135445;28;20065;-70
2022/07/22 00:53:08;;;;;;;9.50;6.07;;;;;;;18.09;77.33;98927.34;4134578;28;20046;-70
2022/07/22 00:55:09;;;;;;;6.53;4.93;;;;;;;18.07;77.16;98930.56;4134019;28;20074;-70
2022/07/22 00:57:10;;;;;;;8.63;5.63;;;;;;;18.04;77.02;98916.59;4136242;28;20076;-70
2022/07/22 00:59:11;;;;;;;5.90;4.47;;;;;;;18.06;77.14;98923.41;4134439;28;20048;-70
2022/07/22 01:01:12;;;;;;;5.35;4.50;;;;;;;18.05;77.14;98926.63;4135555;28;20478;-70
2022/07/22 01:03:13;;;;;;;5.22;4.40;;;;;;;18.11;76.95;98925.72;4133834;28;20092;-70
2022/07/22 01:05:14;;;;;;;5.97;4.20;;;;;;;18.12;77.15;98932.09;4135685;28;20137;-70
2022/07/22 01:07:14;;;;;;;6.05;4.25;;;;;;;18.12;76.87;98932.09;4134716;28;20442;-70
2022/07/22 01:09:14;;;;;;;4.95;4.38;;;;;;;18.15;77.13;98929.28;4137972;28;20052;-70
2022/07/22 01:11:17;;;;;;;6.80;4.57;;;;;;;18.20;76.87;98928.00;4138454;28;20148;-70
2022/07/22 01:13:18;;;;;;;4.70;4.20;;;;;;;18.20;76.71;98928.00;4138801;28;20052;-70
2022/07/22 01:15:18;;;;;;;4.93;4.07;;;;;;;18.21;76.88;98921.22;4136825;28;20539;-70
2022/07/22 01:17:19;;;;;;;4.90;4.22;;;;;;;18.16;76.92;98914.06;4138232;28;20145;-70
2022/07/22 01:19:19;;;;;;;5.55;4.60;;;;;;;18.19;76.99;98918.03;4137756;28;20401;-70
2022/07/22 01:21:20;;;;;;;5.13;4.38;;;;;;;18.17;76.93;98918.44;4137358;28;20034;-70
2022/07/22 01:23:21;;;;;;;5.40;4.13;;;;;;;18.19;76.75;98932.03;4137286;28;20065;-70
2022/07/22 01:25:21;;;;;;;4.75;4.22;;;;;;;18.15;77.01;98917.28;4137943;28;20129;-70
2022/07/22 01:27:21;;;;;;;5.63;4.32;;;;;;;18.14;76.73;98918.50;4137489;28;20053;-70
2022/07/22 01:29:22;;;;;;;4.82;3.95;;;;;;;18.12;77.11;98921.72;4137449;28;20569;-70
2022/07/22 01:31:22;;;;;;;4.82;4.25;;;;;;;18.09;77.29;98916.94;4138361;28;20046;-70
2022/07/22 01:33:23;;;;;;;4.68;4.25;;;;;;;18.11;77.16;98920.13;4136783;28;20518;-70
2022/07/22 01:35:23;;;;;;;4.97;3.80;;;;;;;18.18;76.73;98917.22;4137245;28;20057;-70
2022/07/22 01:37:23;;;;;;;4.43;3.60;;;;;;;18.21;76.79;98919.22;4138870;28;20271;-70
2022/07/22 01:39:24;;;;;;;4.40;3.45;;;;;;;18.20;76.72;98909.22;4137519;28;20042;-70
2022/07/22 01:41:24;;;;;;;5.10;3.53;;;;;;;18.19;76.63;98916.03;4135730;28;20456;-70
2022/07/22 01:43:25;;;;;;;3.25;2.95;;;;;;;18.16;76.89;98916.06;4137904;28;20042;-70
2022/07/22 01:45:25;;;;;;;3.83;3.10;;;;;;;18.19;76.65;98921.63;4136997;28;20046;-70
2022/07/22 01:47:26;;;;;;;3.55;3.17;;;;;;;18.15;76.86;98915.28;4136919;28;20386;-70
2022/07/22 01:49:26;;;;;;;3.33;2.92;;;;;;;18.20;76.40;98914.84;4136443;28;20046;-70
2022/07/22 01:51:26;;;;;;;3.30;2.78;;;;;;;18.17;76.39;98920.47;4136174;28;20192;-70
2022/07/22 01:53:27;;;;;;;5.68;3.70;;;;;;;18.17;76.54;98920.47;4138161;28;20237;-70
2022/07/22 01:55:27;;;;;;;4.03;3.35;;;;;;;18.10;76.62;98918.53;4135619;28;20133;-70
2022/07/22 01:57:28;;;;;;;3.53;2.88;;;;;;;18.13;76.44;98914.13;4137529;28;20038;-70
2022/07/22 01:59:28;;;;;;;5.25;3.25;;;;;;;18.09;76.39;98919.75;4136829;28;20494;-70
2022/07/22 02:01:28;;;;;;;4.32;3.58;;;;;;;18.07;76.35;98913.78;4136317;28;20446;-70
2022/07/22 02:03:29;;;;;;;4.55;3.75;;;;;;;18.07;76.20;98918.59;4136833;28;20038;-70
2022/07/22 02:05:29;;;;;;;5.63;3.65;;;;;;;18.10;76.25;98915.72;4136446;28;20386;-70
2022/07/22 02:07:30;;;;;;;4.05;3.40;;;;;;;18.09;76.16;98916.94;4138013;28;20052;-70
2022/07/22 02:09:30;;;;;;;3.80;3.45;;;;;;;18.07;75.59;98913.78;4136050;28;20088;-70
2022/07/22 02:11:31;;;;;;;3.88;3.08;;;;;;;18.06;75.91;98923.41;4134278;28;20500;-70
2022/07/22 02:13:31;;;;;;;6.78;4.15;;;;;;;18.03;75.39;98915.81;4133879;28;20049;-70
2022/07/22 02:15:32;;;;;;;6.50;4.30;;;;;;;18.00;75.51;98918.66;4137743;28;20139;-70
2022/07/22 02:17:34;;;;;;;6.25;4.88;;;;;;;17.96;76.44;98927.91;4137159;28;20042;-70
2022/07/22 02:19:35;;;;;;;6.82;5.13;;;;;;;17.95;76.70;98917.91;4135563;28;20233;-70
2022/07/22 02:21:35;;;;;;;6.38;4.78;;;;;;;17.88;77.04;98920.78;4137576;28;20060;-70
2022/07/22 02:23:35;;;;;;;5.72;5.13;;;;;;;17.84;76.80;98922.03;4137029;28;20462;-70
2022/07/22 02:25:36;;;;;;;6.43;4.85;;;;;;;17.83;75.78;98921.25;4135579;28;20656;-70
2022/07/22 02:27:37;;;;;;;8.43;4.95;;;;;;;17.82;76.54;98925.25;4137828;28;20500;-70
2022/07/22 02:29:38;;;;;;;6.60;4.57;;;;;;;17.84;76.47;98924.84;4135719;28;20050;-70
2022/07/22 02:31:38;;;;;;;5.50;4.47;;;;;;;17.83;76.65;98920.44;4136707;28;20061;-70
2022/07/22 02:33:38;;;;;;;8.65;4.85;;;;;;;17.82;76.94;98914.06;4137742;28;20046;-70
2022/07/22 02:35:39;;;;;;;6.05;4.60;;;;;;;17.84;76.44;98922.81;4137454;28;20038;-70
2022/07/22 02:37:39;;;;;;;5.85;4.57;;;;;;;17.86;75.21;98922.41;4137307;28;20048;-70
2022/07/22 02:39:40;;;;;;;9.13;4.43;;;;;;;17.90;74.39;98923.19;4135959;28;20104;-70
2022/07/22 02:41:40;;;;;;;10.45;4.38;;;;;;;17.95;73.86;98929.09;4136750;28;20516;-70
2022/07/22 02:43:41;;;;;;;7.60;5.25;;;;;;;17.99;74.35;98933.88;4136883;28;20038;-70
2022/07/22 02:45:41;;;;;;;6.40;4.60;;;;;;;17.92;75.37;98929.94;4136726;28;20041;-70
2022/07/22 02:47:50;;;;;;;7.88;5.00;;;;;;;17.86;74.83;98937.19;4136098;28;20045;-70
2022/07/22 02:49:50;;;;;;;10.70;4.93;;;;;;;17.73;75.93;98936.16;4134720;28;20081;-70
2022/07/22 02:51:51;;;;;;;6.20;4.47;;;;;;;17.59;76.92;98941.84;4136677;28;20084;-70
2022/07/22 02:53:51;;;;;;;8.88;5.00;;;;;;;17.46;78.11;98946.34;4136249;28;20113;-70
2022/07/22 02:55:51;;;;;;;7.93;5.18;;;;;;;17.36;78.00;98937.63;4135902;28;20049;-70
2022/07/22 02:57:52;;;;;;;9.68;4.82;;;;;;;17.35;76.92;98944.44;4136859;28;20394;-70
2022/07/22 02:59:52;;;;;;;6.45;4.82;;;;;;;17.37;77.84;98939.22;4136201;28;20050;-70
2022/07/22 03:01:52;;;;;;;6.35;4.03;;;;;;;17.34;78.18;98942.06;4135757;28;20053;-70
2022/07/22 03:03:53;;;;;;;6.00;4.93;;;;;;;17.31;78.00;98940.88;4136392;28;20111;-70
2022/07/22 03:05:53;;;;;;;9.38;5.20;;;;;;;17.34;77.25;98930.88;4136341;28;20049;-70
2022/07/22 03:07:53;;;;;;;10.38;4.95;;;;;;;17.21;79.65;98938.16;4136199;28;20052;-70
2022/07/22 03:09:54;;;;;;;6.57;5.00;;;;;;;17.20;77.98;98933.78;4135734;28;20137;-70
2022/07/22 03:11:54;;;;;;;11.63;5.95;;;;;;;17.16;79.29;98930.22;4136353;28;20825;-70
2022/07/22 03:13:54;;;;;;;12.70;5.22;;;;;;;17.12;78.40;98939.41;4137183;28;20042;-70
2022/07/22 03:15:55;;;;;;;6.30;4.80;;;;;;;17.08;78.70;98938.66;4134695;28;20045;-70
2022/07/22 03:17:55;;;;;;;8.40;5.28;;;;;;;16.96;80.01;98927.94;4136947;28;20454;-70
2022/07/22 03:19:56;;;;;;;6.20;4.45;;;;;;;16.97;78.83;98937.16;4135016;28;20038;-70
2022/07/22 03:21:56;;;;;;;11.95;5.43;;;;;;;17.00;78.56;98933.53;4135344;28;20084;-70
2022/07/22 03:23:56;;;;;;;8.63;4.65;;;;;;;16.95;78.63;98936.75;4135726;28;20391;-70
2022/07/22 03:25:57;;;;;;;6.97;4.60;;;;;;;16.99;77.11;98935.53;4135279;28;20056;-70
2022/07/22 03:27:57;;;;;;;6.45;4.68;;;;;;;17.03;76.88;98930.69;4134841;28;20049;-70
2022/07/22 03:29:58;;;;;;;12.02;5.13;;;;;;;17.02;77.51;98937.50;4134272;28;20326;-70
2022/07/22 03:31:58;;;;;;;13.80;6.05;;;;;;;17.01;77.54;98940.72;4135026;28;20152;-70
2022/07/22 03:34:00;;;;;;;6.15;4.65;;;;;;;17.01;78.28;98941.50;4137258;28;20161;-70
2022/07/22 03:36:00;;;;;;;11.30;4.68;;;;;;;17.01;77.67;98946.31;4137386;28;20121;-70
2022/07/22 03:38:02;;;;;;;19.42;5.30;;;;;;;17.04;77.55;98942.69;4136093;28;20438;-70
2022/07/22 03:40:03;;;;;;;9.70;5.20;;;;;;;17.05;78.05;98944.28;4133703;28;20493;-70
2022/07/22 03:42:04;;;;;;;11.23;6.05;;;;;;;17.04;77.79;98954.66;4135805;28;20034;-70
2022/07/22 03:44:04;;;;;;;6.32;4.72;;;;;;;17.01;78.34;98943.50;4135641;28;20615;-70
2022/07/22 03:46:04;;;;;;;6.65;5.07;;;;;;;17.03;77.42;98941.88;4135888;28;20107;-70
2022/07/22 03:48:05;;;;;;;9.77;5.55;;;;;;;17.01;80.03;98946.31;4134790;28;20068;-70
2022/07/22 03:50:06;;;;;;;6.30;5.00;;;;;;;16.94;79.57;98949.94;4133876;28;20064;-70
2022/07/22 03:52:06;;;;;;;9.10;5.70;;;;;;;16.88;80.32;98945.19;4135167;28;20034;-70
2022/07/22 03:54:06;;;;;;;10.63;5.68;;;;;;;16.81;80.72;98951.63;4132939;28;20036;-70
2022/07/22 03:56:07;;;;;;;6.85;5.20;;;;;;;16.74;81.25;98946.88;4134149;28;20040;-70
2022/07/22 03:58:07;;;;;;;11.48;5.22;;;;;;;16.72;80.15;98943.69;4133541;28;20545;-70
2022/07/22 04:00:08;;;;;;;11.98;5.35;;;;;;;16.76;80.64;98943.66;4133198;28;20313;-70
2022/07/22 04:02:08;;;;;;;9.77;5.50;;;;;;;16.82;79.58;98954.00;4131769;28;20030;-70
2022/07/22 04:04:09;;;;;;;9.15;5.53;;;;;;;16.82;80.33;98942.03;4133652;28;20478;-70
2022/07/22 04:06:09;;;;;;;6.95;5.03;;;;;;;16.83;80.10;98941.63;4134525;28;20023;-70
2022/07/22 04:08:10;;;;;;;6.13;4.97;;;;;;;16.90;79.09;98940.00;4132614;28;20018;-70
2022/07/22 04:10:10;;;;;;;8.07;5.47;;;;;;;16.92;79.20;98941.16;4132909;28;20026;-70
2022/07/22 04:12:12;;;;;;;8.98;5.50;;;;;;;16.97;78.78;98937.94;4134269;28;20033;-70
2022/07/22 04:14:12;;;;;;;11.57;5.25;;;;;;;17.01;79.02;98935.13;4124809;28;20030;-70
2022/07/22 04:16:13;;;;;;;8.98;5.47;;;;;;;17.00;79.46;98925.94;4134060;28;20112;-70
2022/07/22 04:18:15;;;;;;;8.15;5.28;;;;;;;17.00;79.61;98936.34;4132671;28;20362;-70
2022/07/22 04:20:15;;;;;;;8.95;5.30;;;;;;;17.00;80.19;98939.91;4133870;28;20034;-70
2022/07/22 04:22:15;;;;;;;6.93;5.20;;;;;;;17.04;79.07;98934.28;4133631;28;20750;-70
2022/07/22 04:24:16;;;;;;;7.55;5.00;;;;;;;17.08;79.08;98927.47;4134284;28;20177;-70
2022/07/22 04:26:16;;;;;;;7.43;4.70;;;;;;;17.13;81.08;98932.66;4134571;28;20038;-70
2022/07/22 04:28:17;;;;;;;6.10;5.00;;;;;;;17.19;81.31;98932.97;4131302;28;20502;-70
2022/07/22 04:30:17;;;;;;;6.38;4.95;;;;;;;17.23;80.14;98935.78;4133780;28;20080;-70
2022/07/22 04:32:17;;;;;;;6.45;5.25;;;;;;;17.23;81.75;98941.38;4132611;28;20136;-70
2022/07/22 04:34:18;;;;;;;5.93;4.90;;;;;;;17.24;82.02;98937.34;4133733;28;20117;-70
2022/07/22 04:36:18;;;;;;;9.18;5.40;;;;;;;17.27;81.87;98936.53;4132139;28;20465;-70
2022/07/22 04:38:18;;;;;;;6.57;5.28;;;;;;;17.30;82.13;98941.31;4132214;28;20479;-70
2022/07/22 04:40:19;;;;;;;7.68;6.35;;;;;;;17.31;82.13;98942.91;4134399;28;20022;-70
2022/07/22 04:42:19;;;;;;;5.45;4.63;;;;;;;17.35;81.57;98944.44;4132165;28;20061;-70
2022/07/22 04:44:19;;;;;;;6.10;4.90;;;;;;;17.42;81.46;98941.59;4136049;28;20028;-70
2022/07/22 04:46:20;;;;;;;6.40;5.13;;;;;;;17.46;82.40;98947.16;4136021;28;20069;-70
2022/07/22 04:48:20;;;;;;;7.95;5.63;;;;;;;17.48;82.08;98941.16;4135915;28;20501;-70
2022/07/22 04:50:21;;;;;;;8.48;6.10;;;;;;;17.49;81.28;98935.13;4137318;28;20050;-70
2022/07/22 04:52:21;;;;;;;7.22;5.55;;;;;;;17.53;80.93;98937.88;4136181;28;20697;-70
2022/07/22 04:54:22;;;;;;;8.70;5.50;;;;;;;17.58;80.33;98943.06;4093719;28;20220;-70
2022/07/22 04:56:22;;;;;;;6.80;5.55;;;;;;;17.63;79.99;98945.41;4126123;28;20053;-70
2022/07/22 04:58:22;;;;;;;9.57;6.38;;;;;;;17.65;80.77;98949.38;4136008;28;20125;-70
2022/07/22 05:00:24;;;;;;;9.32;6.38;;;;;;;17.67;81.07;98938.56;4136238;28;20050;-70
2022/07/22 05:02:24;;;;;;;10.82;6.15;;;;;;;17.70;79.37;98939.75;4136199;28;20056;-70
2022/07/22 05:04:24;;;;;;;6.03;5.05;;;;;;;17.73;79.64;98936.16;4135764;28;20042;-70
2022/07/22 05:06:25;;;;;;;10.85;6.20;;;;;;;17.79;79.66;98940.09;4133598;28;20060;-70
2022/07/22 05:08:25;;;;;;;6.40;5.22;;;;;;;17.86;78.74;98942.00;4135293;28;20057;-70
2022/07/22 05:10:27;;;;;;;6.28;5.57;;;;;;;17.87;79.93;98946.38;4136926;28;20034;-70
2022/07/22 05:12:27;;;;;;;9.20;5.78;;;;;;;17.93;80.10;98953.13;4135726;28;20052;-70
2022/07/22 05:14:28;;;;;;;8.43;6.32;;;;;;;17.95;80.08;98954.28;4136533;28;20537;-70
2022/07/22 05:16:28;;;;;;;9.85;6.03;;;;;;;17.95;80.37;98956.28;4135080;28;20387;-70
2022/07/22 05:18:28;;;;;;;9.88;5.85;;;;;;;17.95;80.10;98954.28;4135914;28;20042;-70
2022/07/22 05:20:29;;;;;;;6.32;5.35;;;;;;;18.03;80.28;98952.22;4136639;28;20530;-70
2022/07/22 05:22:29;;;;;;;6.20;5.22;;;;;;;18.05;80.43;98954.63;4135414;28;20453;-70
2022/07/22 05:24:29;;;;;;;6.38;4.57;;;;;;;18.13;79.00;98947.72;4134934;28;20064;-70
2022/07/22 05:26:32;;;;;;;7.53;4.18;;;;;;;18.16;79.13;98956.06;4137757;28;20092;-70
2022/07/22 05:28:32;;;;;;;;;;;;;;;18.22;78.66;98956.41;4136413;28;20474;-70
2022/07/22 05:30:33;;;;;;;8.25;5.10;;;;;;;18.23;79.52;98944.78;4135948;28;19941;-70
2022/07/22 05:32:33;;;;;;;12.05;5.38;;;;;;;18.30;79.70;98949.50;4137915;28;20042;-70
2022/07/22 05:34:33;;;;;;;7.35;4.75;;;;;;;18.31;79.14;98945.50;4136196;28;20025;-70
2022/07/22 05:36:34;;;;;;;5.80;4.82;;;;;;;18.35;78.90;98954.63;4136787;28;20053;-70
2022/07/22 05:38:34;;;;;;;7.40;5.10;;;;;;;18.36;78.77;98953.44;4137532;28;20045;-70
2022/07/22 05:40:34;;;;;;;6.18;4.78;;;;;;;18.38;78.74;98953.81;4137419;28;20050;-68
2022/07/22 05:42:35;;;;;;;5.78;5.18;;;;;;;18.38;78.94;98951.03;4137478;28;20046;-69
2022/07/22 05:44:35;;;;;;;6.88;5.30;;;;;;;18.38;78.74;98953.81;4137126;28;20501;-70
2022/07/22 05:46:35;;;;;;;6.18;4.78;;;;;;;18.43;77.78;98958.16;4137144;28;20553;-67
2022/07/22 05:48:36;;;;;;;5.75;5.00;;;;;;;18.43;77.70;98961.75;4135473;28;20538;-68
2022/07/22 05:50:36;;;;;;;6.80;4.28;;;;;;;18.46;78.05;98958.13;4136681;28;20042;-68
2022/07/22 05:52:38;;;;;;;5.50;4.50;;;;;;;18.50;77.88;98961.66;4137299;28;20064;-67
2022/07/22 05:54:39;;;;;;;7.68;4.85;;;;;;;18.54;77.80;98956.03;4136096;28;20069;-68
2022/07/22 05:56:40;;;;;;;5.13;4.10;;;;;;;18.57;77.68;98955.19;4136875;28;20321;-67
2022/07/22 05:58:41;;;;;;;7.47;4.07;;;;;;;18.62;77.60;98965.94;4136185;28;20041;-68
2022/07/22 06:00:42;;;;;;;5.53;4.00;;;;;;;18.57;78.21;98960.78;4135779;28;20078;-68
2022/07/22 06:02:42;;;;;;;4.88;4.35;;;;;;;18.62;78.09;98959.50;4136317;28;20042;-67
2022/07/22 06:04:42;;;;;;;3.58;2.90;;;;;;;18.69;78.29;98953.84;4137110;28;20052;-68
2022/07/22 06:06:43;;;;;;;5.55;2.97;;;;;;;18.71;77.99;98963.44;4135098;28;20522;-68
2022/07/22 06:08:43;;;;;;;7.15;2.85;;;;;;;18.75;77.97;98966.97;4133154;28;20050;-68
2022/07/22 06:10:44;;;;;;;4.18;2.67;;;;;;;18.82;77.66;98968.88;4137017;28;20050;-68
2022/07/22 06:12:44;;;;;;;2.33;1.98;;;;;;;18.83;77.29;98962.06;4137481;28;20045;-67
2022/07/22 06:14:46;;;;;;;2.50;2.03;;;;;;;18.76;77.73;98964.94;4136927;28;20107;-68
2022/07/22 06:16:46;;;;;;;3.20;2.17;;;;;;;18.83;77.46;98961.25;4137674;28;20109;-68
2022/07/22 06:18:46;;;;;;;2.80;2.30;;;;;;;18.84;77.33;98960.03;4137377;28;20081;-67
2022/07/22 06:20:47;;;;;;;2.38;2.10;;;;;;;19.00;76.80;98963.81;4137905;28;20053;-67
2022/07/22 06:22:47;;;;;;;2.30;1.88;;;;;;;19.29;76.39;98974.59;4136718;28;20042;-68
2022/07/22 06:24:48;;;;;;;4.30;2.35;;;;;;;19.58;75.04;98970.13;4138025;28;20449;-68
2022/07/22 06:26:49;;;;;;;2.92;2.08;;;;;;;19.62;73.58;98973.69;4137775;28;20066;-67
2022/07/22 06:28:49;;;;;;;2.58;2.05;;;;;;;19.70;73.69;98960.31;4135824;28;20605;-68
2022/07/22 06:30:49;;;;;;;2.60;2.10;;;;;;;19.84;73.82;98962.06;4137354;28;20100;-68
2022/07/22 06:32:50;;;;;;;2.75;1.95;;;;;;;20.08;73.24;98968.44;4136830;28;20045;-68
2022/07/22 06:34:50;;;;;;;2.00;1.80;;;;;;;20.32;71.43;98960.75;4136691;28;20129;-68
2022/07/22 06:36:51;;;;;;;2.15;1.77;;;;;;;20.01;71.65;98958.13;4134948;28;20034;-68
2022/07/22 06:38:51;;;;;;;3.00;2.00;;;;;;;20.19;71.82;98958.59;4136575;28;20042;-68
2022/07/22 06:40:51;;;;;;;2.10;1.80;;;;;;;20.52;70.88;98949.53;4137069;28;20037;-67
2022/07/22 06:42:52;;;;;;;2.22;1.75;;;;;;;20.30;70.47;98966.81;4136610;28;20044;-68
2022/07/22 06:44:52;;;;;;;3.03;1.90;;;;;;;20.19;71.06;98961.41;4137527;28;20057;-68
2022/07/22 06:46:52;;;;;;;2.70;1.40;;;;;;;19.80;72.42;98961.34;4136651;28;20490;-68
2022/07/22 06:48:53;;;;;;;3.60;1.58;;;;;;;19.70;72.75;98962.34;4137264;28;20430;-68
2022/07/22 06:50:54;;;;;;;2.53;1.52;;;;;;;19.56;72.88;98958.53;4137242;28;20840;-67
2022/07/22 06:52:54;;;;;;;1.83;1.50;;;;;;;19.64;72.99;98965.63;4136959;28;20047;-68
2022/07/22 06:54:54;;;;;;;2.00;1.50;;;;;;;19.56;73.30;98964.16;4136400;28;20371;-68
2022/07/22 06:56:55;;;;;;;1.60;1.40;;;;;;;19.40;73.85;98954.78;4135737;28;20047;-68
2022/07/22 06:58:55;;;;;;;1.45;1.30;;;;;;;19.42;73.59;98967.16;4136492;28;20061;-68
2022/07/22 07:00:55;;;;;;;1.83;1.55;;;;;;;19.51;73.37;98967.41;4138054;28;20068;-68
2022/07/22 07:02:59;;;;;;;1.60;1.40;;;;;;;19.56;73.67;98966.16;4137681;28;20402;-68
2022/07/22 07:05:00;;;;;;;1.90;1.40;;;;;;;19.39;73.50;98968.03;4136723;28;20133;-68
2022/07/22 07:07:00;;;;;;;2.20;1.58;;;;;;;19.29;74.35;98969.00;4136440;28;20533;-68
2022/07/22 07:09:01;;;;;;;1.90;1.20;;;;;;;19.40;74.15;98971.63;4135002;28;20056;-68
2022/07/22 07:11:01;;;;;;;2.20;1.30;;;;;;;19.33;74.12;98964.13;4136828;28;20068;-68
2022/07/22 07:13:02;;;;;;;1.58;1.30;;;;;;;19.48;73.59;98968.28;4137137;28;20475;-68
2022/07/22 07:15:03;;;;;;;2.53;1.25;;;;;;;19.55;73.88;98970.19;4137081;28;20121;-68
2022/07/22 07:17:03;;;;;;;1.30;1.00;;;;;;;19.58;72.94;98966.53;4136436;28;20383;-68
2022/07/22 07:19:03;;;;;;;1.75;1.58;;;;;;;19.67;72.75;98963.19;4136219;28;20475;-68
2022/07/22 07:21:04;;;;;;;2.53;1.20;;;;;;;19.78;72.33;98958.97;4136612;28;20441;-68
2022/07/22 07:23:05;;;;;;;1.33;1.10;;;;;;;19.98;71.99;98970.22;4135634;28;20050;-68
2022/07/22 07:25:07;;;;;;;1.92;1.20;;;;;;;20.03;71.12;98963.34;4136037;28;20046;-68
2022/07/22 07:27:07;;;;;;;2.55;1.45;;;;;;;20.06;70.93;98966.06;4135950;28;20046;-68
2022/07/22 07:29:08;;;;;;;1.35;1.25;;;;;;;20.05;70.66;98964.50;4135586;28;20050;-68
2022/07/22 07:31:08;;;;;;;3.72;1.50;;;;;;;20.02;70.71;98958.91;4136701;28;20085;-68
2022/07/22 07:33:09;;;;;;;1.73;1.38;;;;;;;20.07;71.19;98966.88;4136835;28;20379;-68
2022/07/22 07:35:10;;;;;;;3.42;1.75;;;;;;;20.16;70.18;98962.25;4136752;28;20076;-68
2022/07/22 07:37:10;;;;;;;3.80;1.50;;;;;;;20.00;70.31;98961.38;4135875;28;20046;-68
2022/07/22 07:39:11;;;;;;;2.10;1.67;;;;;;;19.85;70.58;98963.66;4135716;28;20509;-68
2022/07/22 07:41:11;;;;;;;5.90;1.90;;;;;;;19.61;71.94;98969.31;4136172;28;20050;-68
2022/07/22 07:43:12;;;;;;;2.22;1.80;;;;;;;19.83;71.90;98963.28;4136138;28;20132;-68
2022/07/22 07:45:12;;;;;;;1.77;1.58;;;;;;;19.77;71.23;98965.78;4135796;28;20038;-67
2022/07/22 07:47:17;;;;;;;1.95;1.60;;;;;;;19.79;71.63;98971.00;4135859;28;20052;-68
2022/07/22 07:49:17;;;;;;;2.03;1.60;;;;;;;20.01;70.75;98966.56;4134185;28;21160;-68
2022/07/22 07:51:17;;;;;;;2.70;1.80;;;;;;;20.10;70.54;98961.16;4136123;28;20048;-68
2022/07/22 07:53:18;;;;;;;1.88;1.60;;;;;;;20.13;70.06;98965.16;4134919;28;20054;-68
2022/07/22 07:55:19;;;;;;;4.28;1.80;;;;;;;20.16;70.40;98964.28;4137262;28;20141;-68
2022/07/22 07:57:20;;;;;;;2.80;1.58;;;;;;;20.37;69.24;98958.25;4135814;28;20141;-68
2022/07/22 07:59:20;;;;;;;2.22;1.65;;;;;;;20.47;69.24;98962.09;4136289;28;20081;-68
2022/07/22 08:01:21;;;;;;;1.50;1.40;;;;;;;20.27;69.01;98945.19;4135950;28;20362;-68
2022/07/22 08:03:21;;;;;;;2.78;1.67;;;;;;;20.42;68.64;98956.94;4134765;28;20045;-68
2022/07/22 08:05:21;;;;;;;2.15;1.60;;;;;;;20.60;67.66;98942.53;4135828;28;20050;-68
2022/07/22 08:07:22;;;;;;;2.10;1.70;;;;;;;20.67;68.21;98945.97;4136014;28;20309;-68
2022/07/22 08:09:22;;;;;;;1.70;1.52;;;;;;;20.79;67.64;98950.16;4136127;28;20144;-68
2022/07/22 08:11:23;;;;;;;1.70;1.60;;;;;;;20.74;66.55;98951.44;4135356;28;20186;-68
2022/07/22 08:13:23;;;;;;;2.67;1.60;;;;;;;20.51;67.96;98953.56;4135581;28;20073;-68
2022/07/22 08:15:27;;;;;;;3.33;2.00;;;;;;;20.47;67.87;98945.22;4135782;28;20351;-68
2022/07/22 08:17:28;;;;;;;2.53;1.88;;;;;;;20.44;67.92;98949.69;4136113;28;20057;-68
2022/07/22 08:19:29;;;;;;;3.33;2.00;;;;;;;20.46;68.17;98949.25;4138600;28;20498;-68
2022/07/22 08:21:29;;;;;;;2.28;1.75;;;;;;;20.48;67.68;98946.81;4138694;28;20050;-68
2022/07/22 08:23:29;;;;;;;2.15;1.83;;;;;;;20.31;67.89;98942.31;4140178;28;20117;-68
2022/07/22 08:25:30;;;;;;;3.25;2.00;;;;;;;20.41;67.64;98939.28;4138429;28;20041;-68
2022/07/22 08:27:31;;;;;;;3.85;1.90;;;;;;;20.50;67.30;98940.75;4139626;28;20609;-68
2022/07/22 08:29:31;;;;;;;2.65;2.28;;;;;;;20.38;67.75;98942.19;4137531;28;20046;-68
2022/07/22 08:31:34;;;;;;;2.92;1.90;;;;;;;20.24;68.01;98931.22;4138711;28;20041;-68
2022/07/22 08:33:34;;;;;;;4.07;2.10;;;;;;;20.34;67.82;98935.81;4139395;28;20054;-68
2022/07/22 08:35:35;;;;;;;3.45;2.13;;;;;;;20.48;67.96;98938.38;4137265;28;20054;-68
2022/07/22 08:37:36;;;;;;;3.65;2.33;;;;;;;20.62;67.07;98932.47;4140204;28;20635;-68
2022/07/22 08:39:36;;;;;;;2.90;2.60;;;;;;;20.60;66.66;98939.72;4137249;28;20036;-68
2022/07/22 08:41:39;;;;;;;3.03;2.70;;;;;;;20.54;66.16;98936.66;4139416;28;20045;-68
2022/07/22 08:43:42;;;;;;;;;;;;;;;20.55;66.21;98938.22;4139160;28;20321;-68
2022/07/22 08:45:42;;;;;;;2.83;2.47;;;;;;;20.54;66.13;98928.22;4139479;28;19920;-68
2022/07/22 08:47:48;;;;;;;2.92;2.50;;;;;;;20.59;65.90;98927.69;4139265;28;20034;-68
2022/07/22 08:49:48;;;;;;;3.88;2.60;;;;;;;20.57;66.74;98932.97;4137503;28;20041;-68
2022/07/22 08:51:48;;;;;;;4.00;2.60;;;;;;;20.74;65.78;98922.53;4138539;28;20115;-68
2022/07/22 08:53:49;;;;;;;3.78;2.88;;;;;;;20.74;65.94;98933.78;4139103;28;20050;-68
2022/07/22 08:55:49;;;;;;;6.05;2.60;;;;;;;20.72;66.40;98937.03;4138284;28;20045;-68
2022/07/22 08:57:50;;;;;;;2.80;2.50;;;;;;;20.75;66.09;98933.34;4138549;28;20125;-68
2022/07/22 08:59:54;;;;;;;5.30;2.65;;;;;;;20.67;66.14;98928.31;4138435;28;20057;-68
2022/07/22 09:02:11;;;;;;;3.33;2.78;;;;;;;20.62;66.77;98929.63;4137769;28;20057;-68
2022/07/22 09:04:12;;;;;;;4.45;2.47;;;;;;;20.52;66.83;98924.22;4137599;28;20060;-68
2022/07/22 09:06:12;;;;;;;3.20;2.90;;;;;;;20.57;66.92;98918.91;4138508;28;20034;-68
2022/07/22 09:08:12;;;;;;;4.15;2.80;;;;;;;20.76;66.71;98923.69;4139049;28;20037;-68
2022/07/22 09:10:16;;;;;;;3.25;2.95;;;;;;;20.67;66.38;98931.91;4137324;28;20036;-68
2022/07/22 09:12:17;;;;;;;5.18;2.85;;;;;;;20.47;67.16;98919.94;4137764;28;20130;-68
2022/07/22 09:14:17;;;;;;;3.60;2.70;;;;;;;20.75;66.88;98918.50;4139107;28;20065;-68
2022/07/22 09:16:41;;;;;;;4.20;2.63;;;;;;;20.88;65.44;98921.44;4138303;28;20022;-68
2022/07/22 09:18:53;;;;;;;3.25;2.70;;;;;;;20.96;65.18;98920.03;4137620;28;20235;-68
2022/07/22 09:20:59;;;;;;;3.20;2.63;;;;;;;20.93;65.30;98915.28;4137418;28;20115;-68
2022/07/22 09:23:00;;;;;;;2.80;2.50;;;;;;;20.88;64.01;98907.38;4138246;28;20523;-68
2022/07/22 09:25:25;;;;;;;4.05;3.00;;;;;;;21.09;63.81;98922.94;4137815;28;20088;-68
2022/07/22 09:27:27;;;;;;;3.65;2.75;;;;;;;21.53;62.71;98908.22;4137962;28;20050;-68
2022/07/22 09:29:27;;;;;;;4.23;3.13;;;;;;;21.70;61.24;98906.16;4136487;28;20734;-68